sensor_id;sensor_type;location;lat;lon;timestamp;temperature;humidity
55711;DHT22;41612;51.994;5.880;2022-08-20T00:01:03;22.40;70.70
55711;DHT22;41612;51.994;5.880;2022-08-20T00:03:39;22.40;70.60
55711;DHT22;41612;51.994;5.880;2022-08-20T00:06:12;22.40;70.50
55711;DHT22;41612;51.994;5.880;2022-08-20T00:08:39;22.40;70.50
55711;DHT22;41612;51.994;5.880;2022-08-20T00:11:08;22.30;70.50
55711;DHT22;41612;51.994;5.880;2022-08-20T00:13:44;22.30;70.60
55711;DHT22;41612;51.994;5.880;2022-08-20T00:16:12;22.30;70.60
55711;DHT22;41612;51.994;5.880;2022-08-20T00:18:43;22.30;70.50
55711;DHT22;41612;51.994;5.880;2022-08-20T00:21:12;22.30;70.50
55711;DHT22;41612;51.994;5.880;2022-08-20T00:23:41;22.30;70.50
55711;DHT22;41612;51.994;5.880;2022-08-20T00:26:07;22.30;70.50
55711;DHT22;41612;51.994;5.880;2022-08-20T00:28:34;22.30;70.40
55711;DHT22;41612;51.994;5.880;2022-08-20T00:31:04;22.30;70.30
55711;DHT22;41612;51.994;5.880;2022-08-20T00:33:30;22.30;70.30
55711;DHT22;41612;51.994;5.880;2022-08-20T00:35:56;22.30;70.30
55711;DHT22;41612;51.994;5.880;2022-08-20T00:38:23;22.30;70.40
55711;DHT22;41612;51.994;5.880;2022-08-20T00:40:52;22.30;71.70
55711;DHT22;41612;51.994;5.880;2022-08-20T00:46:26;22.20;71.60
55711;DHT22;41612;51.994;5.880;2022-08-20T00:48:54;22.20;71.40
55711;DHT22;41612;51.994;5.880;2022-08-20T00:51:50;22.20;71.00
55711;DHT22;41612;51.994;5.880;2022-08-20T00:54:25;22.20;70.80
55711;DHT22;41612;51.994;5.880;2022-08-20T00:56:57;22.20;70.60
55711;DHT22;41612;51.994;5.880;2022-08-20T00:59:27;22.20;70.50
55711;DHT22;41612;51.994;5.880;2022-08-20T01:02:13;22.20;70.70
55711;DHT22;41612;51.994;5.880;2022-08-20T01:04:39;22.20;70.40
55711;DHT22;41612;51.994;5.880;2022-08-20T01:07:08;22.20;70.50
55711;DHT22;41612;51.994;5.880;2022-08-20T01:09:35;22.20;70.50
55711;DHT22;41612;51.994;5.880;2022-08-20T01:12:02;22.20;70.60
55711;DHT22;41612;51.994;5.880;2022-08-20T01:14:27;22.20;70.50
55711;DHT22;41612;51.994;5.880;2022-08-20T01:17:08;22.20;70.50
55711;DHT22;41612;51.994;5.880;2022-08-20T01:19:38;22.20;70.50
55711;DHT22;41612;51.994;5.880;2022-08-20T01:22:05;22.20;70.50
55711;DHT22;41612;51.994;5.880;2022-08-20T01:24:55;22.20;70.50
55711;DHT22;41612;51.994;5.880;2022-08-20T01:27:35;22.10;71.50
55711;DHT22;41612;51.994;5.880;2022-08-20T01:30:02;22.10;71.00
55711;DHT22;41612;51.994;5.880;2022-08-20T01:32:38;22.10;70.90
55711;DHT22;41612;51.994;5.880;2022-08-20T01:35:04;22.10;70.80
55711;DHT22;41612;51.994;5.880;2022-08-20T01:37:30;22.10;70.80
55711;DHT22;41612;51.994;5.880;2022-08-20T01:39:55;22.00;70.80
55711;DHT22;41612;51.994;5.880;2022-08-20T01:42:30;22.00;70.90
55711;DHT22;41612;51.994;5.880;2022-08-20T01:44:56;22.00;71.00
55711;DHT22;41612;51.994;5.880;2022-08-20T01:47:34;22.00;71.00
55711;DHT22;41612;51.994;5.880;2022-08-20T01:50:10;22.00;71.10
55711;DHT22;41612;51.994;5.880;2022-08-20T01:53:05;21.90;71.10
55711;DHT22;41612;51.994;5.880;2022-08-20T01:55:34;21.90;71.20
55711;DHT22;41612;51.994;5.880;2022-08-20T01:58:00;21.90;71.50
55711;DHT22;41612;51.994;5.880;2022-08-20T02:00:45;21.80;71.50
55711;DHT22;41612;51.994;5.880;2022-08-20T02:03:11;21.90;71.40
55711;DHT22;41612;51.994;5.880;2022-08-20T02:05:36;21.80;71.40
55711;DHT22;41612;51.994;5.880;2022-08-20T02:08:03;21.80;71.40
55711;DHT22;41612;51.994;5.880;2022-08-20T02:10:29;21.80;71.40
55711;DHT22;41612;51.994;5.880;2022-08-20T02:12:59;21.80;72.00
55711;DHT22;41612;51.994;5.880;2022-08-20T02:15:37;21.80;72.00
55711;DHT22;41612;51.994;5.880;2022-08-20T02:18:08;21.80;71.60
55711;DHT22;41612;51.994;5.880;2022-08-20T02:20:35;21.80;71.50
55711;DHT22;41612;51.994;5.880;2022-08-20T02:23:02;21.80;71.60
55711;DHT22;41612;51.994;5.880;2022-08-20T02:25:30;21.80;72.30
55711;DHT22;41612;51.994;5.880;2022-08-20T02:27:58;21.70;73.30
55711;DHT22;41612;51.994;5.880;2022-08-20T02:30:37;21.70;72.60
55711;DHT22;41612;51.994;5.880;2022-08-20T02:33:07;21.70;73.10
55711;DHT22;41612;51.994;5.880;2022-08-20T02:35:34;21.70;73.70
55711;DHT22;41612;51.994;5.880;2022-08-20T02:38:00;21.70;73.50
55711;DHT22;41612;51.994;5.880;2022-08-20T02:40:27;21.70;74.80
55711;DHT22;41612;51.994;5.880;2022-08-20T02:42:53;21.70;73.30
55711;DHT22;41612;51.994;5.880;2022-08-20T02:45:20;21.70;72.30
55711;DHT22;41612;51.994;5.880;2022-08-20T02:48:03;21.70;72.00
55711;DHT22;41612;51.994;5.880;2022-08-20T02:50:29;21.70;71.80
55711;DHT22;41612;51.994;5.880;2022-08-20T02:52:55;21.70;72.00
55711;DHT22;41612;51.994;5.880;2022-08-20T02:55:21;21.70;74.20
55711;DHT22;41612;51.994;5.880;2022-08-20T02:57:47;21.70;73.40
55711;DHT22;41612;51.994;5.880;2022-08-20T03:00:16;21.70;72.50
55711;DHT22;41612;51.994;5.880;2022-08-20T03:02:58;21.70;72.20
55711;DHT22;41612;51.994;5.880;2022-08-20T03:05:25;21.70;73.40
55711;DHT22;41612;51.994;5.880;2022-08-20T03:07:52;21.60;73.80
55711;DHT22;41612;51.994;5.880;2022-08-20T03:10:31;21.70;72.50
55711;DHT22;41612;51.994;5.880;2022-08-20T03:12:58;21.70;72.10
55711;DHT22;41612;51.994;5.880;2022-08-20T03:15:28;21.60;72.30
55711;DHT22;41612;51.994;5.880;2022-08-20T03:17:54;21.60;73.50
55711;DHT22;41612;51.994;5.880;2022-08-20T03:20:20;21.50;72.60
55711;DHT22;41612;51.994;5.880;2022-08-20T03:22:46;21.50;72.20
55711;DHT22;41612;51.994;5.880;2022-08-20T03:25:14;21.50;72.00
55711;DHT22;41612;51.994;5.880;2022-08-20T03:27:40;21.60;72.00
55711;DHT22;41612;51.994;5.880;2022-08-20T03:30:09;21.50;73.10
55711;DHT22;41612;51.994;5.880;2022-08-20T03:32:44;21.50;73.30
55711;DHT22;41612;51.994;5.880;2022-08-20T03:35:12;21.50;72.40
55711;DHT22;41612;51.994;5.880;2022-08-20T03:37:39;21.50;72.10
55711;DHT22;41612;51.994;5.880;2022-08-20T03:40:10;21.50;73.50
55711;DHT22;41612;51.994;5.880;2022-08-20T03:42:37;21.50;74.50
55711;DHT22;41612;51.994;5.880;2022-08-20T03:45:07;21.40;74.10
55711;DHT22;41612;51.994;5.880;2022-08-20T03:47:40;21.40;73.20
55711;DHT22;41612;51.994;5.880;2022-08-20T03:50:08;21.30;72.70
55711;DHT22;41612;51.994;5.880;2022-08-20T03:52:35;21.40;72.50
55711;DHT22;41612;51.994;5.880;2022-08-20T03:55:02;21.40;72.30
55711;DHT22;41612;51.994;5.880;2022-08-20T03:57:27;21.40;72.30
55711;DHT22;41612;51.994;5.880;2022-08-20T03:59:54;21.40;72.20
55711;DHT22;41612;51.994;5.880;2022-08-20T04:02:28;21.40;72.20
55711;DHT22;41612;51.994;5.880;2022-08-20T04:04:54;21.40;72.20
55711;DHT22;41612;51.994;5.880;2022-08-20T04:07:23;21.40;72.20
55711;DHT22;41612;51.994;5.880;2022-08-20T04:09:55;21.30;72.20
55711;DHT22;41612;51.994;5.880;2022-08-20T04:12:22;21.40;72.20
55711;DHT22;41612;51.994;5.880;2022-08-20T04:14:49;21.30;72.40
55711;DHT22;41612;51.994;5.880;2022-08-20T04:17:16;21.30;72.30
55711;DHT22;41612;51.994;5.880;2022-08-20T04:19:43;21.30;72.30
55711;DHT22;41612;51.994;5.880;2022-08-20T04:22:10;21.30;72.30
55711;DHT22;41612;51.994;5.880;2022-08-20T04:24:39;21.20;72.30
55711;DHT22;41612;51.994;5.880;2022-08-20T04:27:05;21.30;72.50
55711;DHT22;41612;51.994;5.880;2022-08-20T04:29:32;21.20;72.50
55711;DHT22;41612;51.994;5.880;2022-08-20T04:32:08;21.30;72.50
55711;DHT22;41612;51.994;5.880;2022-08-20T04:34:34;21.30;72.50
55711;DHT22;41612;51.994;5.880;2022-08-20T04:37:00;21.20;72.50
55711;DHT22;41612;51.994;5.880;2022-08-20T04:39:25;21.20;72.50
55711;DHT22;41612;51.994;5.880;2022-08-20T04:41:51;21.20;72.50
55711;DHT22;41612;51.994;5.880;2022-08-20T04:44:17;21.20;72.40
55711;DHT22;41612;51.994;5.880;2022-08-20T04:46:49;21.20;72.60
55711;DHT22;41612;51.994;5.880;2022-08-20T04:49:15;21.10;73.80
55711;DHT22;41612;51.994;5.880;2022-08-20T04:51:41;21.00;74.90
55711;DHT22;41612;51.994;5.880;2022-08-20T04:54:06;20.90;75.00
55711;DHT22;41612;51.994;5.880;2022-08-20T04:56:34;20.80;76.10
55711;DHT22;41612;51.994;5.880;2022-08-20T04:59:04;20.70;75.30
55711;DHT22;41612;51.994;5.880;2022-08-20T05:01:40;20.70;74.80
55711;DHT22;41612;51.994;5.880;2022-08-20T05:04:05;20.70;74.50
55711;DHT22;41612;51.994;5.880;2022-08-20T05:06:31;20.70;74.50
55711;DHT22;41612;51.994;5.880;2022-08-20T05:08:58;20.70;74.40
55711;DHT22;41612;51.994;5.880;2022-08-20T05:11:25;20.70;74.30
55711;DHT22;41612;51.994;5.880;2022-08-20T05:13:51;20.70;74.30
55711;DHT22;41612;51.994;5.880;2022-08-20T05:16:27;20.70;74.20
55711;DHT22;41612;51.994;5.880;2022-08-20T05:22:05;20.80;75.30
55711;DHT22;41612;51.994;5.880;2022-08-20T05:24:30;20.80;75.10
55711;DHT22;41612;51.994;5.880;2022-08-20T05:26:59;20.80;74.40
55711;DHT22;41612;51.994;5.880;2022-08-20T05:29:25;20.80;74.10
55711;DHT22;41612;51.994;5.880;2022-08-20T05:31:52;20.80;73.90
55711;DHT22;41612;51.994;5.880;2022-08-20T05:34:18;20.80;73.90
55711;DHT22;41612;51.994;5.880;2022-08-20T05:37:21;20.80;73.90
55711;DHT22;41612;51.994;5.880;2022-08-20T05:39:59;20.80;73.80
55711;DHT22;41612;51.994;5.880;2022-08-20T05:42:53;20.70;74.00
55711;DHT22;41612;51.994;5.880;2022-08-20T06:01:36;20.70;73.80
55711;DHT22;41612;51.994;5.880;2022-08-20T06:04:03;20.70;73.70
55711;DHT22;41612;51.994;5.880;2022-08-20T06:06:48;20.80;73.60
55711;DHT22;41612;51.994;5.880;2022-08-20T06:09:18;20.80;73.60
55711;DHT22;41612;51.994;5.880;2022-08-20T06:12:01;20.80;73.40
55711;DHT22;41612;51.994;5.880;2022-08-20T06:14:27;20.80;73.30
55711;DHT22;41612;51.994;5.880;2022-08-20T06:17:13;20.90;73.20
55711;DHT22;41612;51.994;5.880;2022-08-20T06:19:42;20.90;73.00
55711;DHT22;41612;51.994;5.880;2022-08-20T06:22:08;20.90;72.90
55711;DHT22;41612;51.994;5.880;2022-08-20T06:24:34;20.90;72.80
55711;DHT22;41612;51.994;5.880;2022-08-20T06:27:02;20.90;72.80
55711;DHT22;41612;51.994;5.880;2022-08-20T06:29:31;20.90;72.80
55711;DHT22;41612;51.994;5.880;2022-08-20T06:32:15;21.00;72.80
55711;DHT22;41612;51.994;5.880;2022-08-20T06:34:43;21.00;72.70
55711;DHT22;41612;51.994;5.880;2022-08-20T06:37:26;21.00;72.70
55711;DHT22;41612;51.994;5.880;2022-08-20T06:39:52;20.90;72.80
55711;DHT22;41612;51.994;5.880;2022-08-20T06:42:19;21.00;72.80
55711;DHT22;41612;51.994;5.880;2022-08-20T06:44:46;20.90;72.80
55711;DHT22;41612;51.994;5.880;2022-08-20T06:47:29;20.80;72.80
55711;DHT22;41612;51.994;5.880;2022-08-20T07:06:29;20.80;72.90
55711;DHT22;41612;51.994;5.880;2022-08-20T07:08:55;20.90;72.80
55711;DHT22;41612;51.994;5.880;2022-08-20T07:11:22;20.90;72.70
55711;DHT22;41612;51.994;5.880;2022-08-20T07:13:47;20.90;72.60
55711;DHT22;41612;51.994;5.880;2022-08-20T07:16:14;21.00;72.60
55711;DHT22;41612;51.994;5.880;2022-08-20T07:18:40;21.00;72.50
55711;DHT22;41612;51.994;5.880;2022-08-20T07:21:05;21.00;72.80
55711;DHT22;41612;51.994;5.880;2022-08-20T07:23:31;20.90;72.60
55711;DHT22;41612;51.994;5.880;2022-08-20T07:25:57;20.90;72.70
55711;DHT22;41612;51.994;5.880;2022-08-20T07:28:25;20.90;72.70
55711;DHT22;41612;51.994;5.880;2022-08-20T07:30:53;20.80;72.60
55711;DHT22;41612;51.994;5.880;2022-08-20T07:33:38;20.90;72.60
55711;DHT22;41612;51.994;5.880;2022-08-20T07:36:05;20.80;72.70
55711;DHT22;41612;51.994;5.880;2022-08-20T07:38:32;20.80;72.60
55711;DHT22;41612;51.994;5.880;2022-08-20T07:41:07;20.80;72.60
55711;DHT22;41612;51.994;5.880;2022-08-20T07:43:34;20.80;72.60
55711;DHT22;41612;51.994;5.880;2022-08-20T07:46:01;20.80;72.60
55711;DHT22;41612;51.994;5.880;2022-08-20T07:48:32;20.80;72.60
55711;DHT22;41612;51.994;5.880;2022-08-20T07:51:01;20.80;72.50
55711;DHT22;41612;51.994;5.880;2022-08-20T07:53:31;20.80;72.50
55711;DHT22;41612;51.994;5.880;2022-08-20T07:55:59;20.80;72.60
55711;DHT22;41612;51.994;5.880;2022-08-20T07:58:26;20.80;72.50
55711;DHT22;41612;51.994;5.880;2022-08-20T08:00:51;20.80;72.40
55711;DHT22;41612;51.994;5.880;2022-08-20T08:03:25;20.80;72.40
55711;DHT22;41612;51.994;5.880;2022-08-20T08:05:59;20.80;72.20
55711;DHT22;41612;51.994;5.880;2022-08-20T08:08:29;20.80;72.20
55711;DHT22;41612;51.994;5.880;2022-08-20T08:14:18;20.80;72.00
55711;DHT22;41612;51.994;5.880;2022-08-20T08:16:49;20.90;71.90
55711;DHT22;41612;51.994;5.880;2022-08-20T08:19:21;20.90;71.80
55711;DHT22;41612;51.994;5.880;2022-08-20T08:27:32;21.00;71.30
55711;DHT22;41612;51.994;5.880;2022-08-20T08:30:03;21.10;71.10
55711;DHT22;41612;51.994;5.880;2022-08-20T08:32:34;21.10;70.90
55711;DHT22;41612;51.994;5.880;2022-08-20T08:35:04;21.20;70.80
55711;DHT22;41612;51.994;5.880;2022-08-20T08:37:31;21.20;70.60
55711;DHT22;41612;51.994;5.880;2022-08-20T08:39:57;21.20;70.40
55711;DHT22;41612;51.994;5.880;2022-08-20T08:42:34;21.30;70.20
55711;DHT22;41612;51.994;5.880;2022-08-20T08:45:05;21.30;70.00
55711;DHT22;41612;51.994;5.880;2022-08-20T08:47:37;21.40;69.90
55711;DHT22;41612;51.994;5.880;2022-08-20T08:50:05;21.40;69.70
55711;DHT22;41612;51.994;5.880;2022-08-20T08:52:34;21.50;69.50
55711;DHT22;41612;51.994;5.880;2022-08-20T08:55:11;21.70;69.20
55711;DHT22;41612;51.994;5.880;2022-08-20T08:57:40;21.70;69.70
55711;DHT22;41612;51.994;5.880;2022-08-20T09:00:13;21.80;68.80
55711;DHT22;41612;51.994;5.880;2022-08-20T09:02:59;21.90;68.70
55711;DHT22;41612;51.994;5.880;2022-08-20T09:05:33;22.00;68.40
55711;DHT22;41612;51.994;5.880;2022-08-20T09:08:07;22.20;68.10
55711;DHT22;41612;51.994;5.880;2022-08-20T09:10:37;22.50;66.00
55711;DHT22;41612;51.994;5.880;2022-08-20T09:13:05;22.90;64.90
55711;DHT22;41612;51.994;5.880;2022-08-20T09:15:35;23.30;63.80
55711;DHT22;41612;51.994;5.880;2022-08-20T09:18:04;23.60;62.80
55711;DHT22;41612;51.994;5.880;2022-08-20T09:20:33;23.80;62.40
55711;DHT22;41612;51.994;5.880;2022-08-20T09:23:05;24.20;61.40
55711;DHT22;41612;51.994;5.880;2022-08-20T09:25:31;24.40;60.20
55711;DHT22;41612;51.994;5.880;2022-08-20T09:27:57;24.60;59.10
55711;DHT22;41612;51.994;5.880;2022-08-20T09:30:23;24.70;58.70
55711;DHT22;41612;51.994;5.880;2022-08-20T09:38:18;25.30;53.20
55711;DHT22;41612;51.994;5.880;2022-08-20T09:40:44;25.40;54.70
55711;DHT22;41612;51.994;5.880;2022-08-20T09:46:35;24.80;56.90
55711;DHT22;41612;51.994;5.880;2022-08-20T09:49:13;24.40;58.20
55711;DHT22;41612;51.994;5.880;2022-08-20T09:51:39;24.50;58.50
55711;DHT22;41612;51.994;5.880;2022-08-20T09:54:12;24.50;58.20
55711;DHT22;41612;51.994;5.880;2022-08-20T09:56:38;24.90;58.00
55711;DHT22;41612;51.994;5.880;2022-08-20T09:59:04;25.40;56.30
55711;DHT22;41612;51.994;5.880;2022-08-20T10:01:32;26.00;54.80
55711;DHT22;41612;51.994;5.880;2022-08-20T10:04:11;26.50;53.20
55711;DHT22;41612;51.994;5.880;2022-08-20T10:06:44;26.80;52.20
55711;DHT22;41612;51.994;5.880;2022-08-20T10:17:29;26.50;47.60
55711;DHT22;41612;51.994;5.880;2022-08-20T10:19:56;26.80;50.30
55711;DHT22;41612;51.994;5.880;2022-08-20T10:22:24;27.10;50.30
55711;DHT22;41612;51.994;5.880;2022-08-20T10:24:51;27.60;49.00
55711;DHT22;41612;51.994;5.880;2022-08-20T10:38:23;25.90;51.70
55711;DHT22;41612;51.994;5.880;2022-08-20T10:40:49;25.40;52.80
55711;DHT22;41612;51.994;5.880;2022-08-20T10:43:15;25.20;53.60
55711;DHT22;41612;51.994;5.880;2022-08-20T10:45:41;25.50;53.50
55711;DHT22;41612;51.994;5.880;2022-08-20T10:48:18;26.20;51.70
55711;DHT22;41612;51.994;5.880;2022-08-20T10:50:47;27.20;50.10
55711;DHT22;41612;51.994;5.880;2022-08-20T10:53:19;27.70;48.00
55711;DHT22;41612;51.994;5.880;2022-08-20T10:55:47;27.50;47.80
55711;DHT22;41612;51.994;5.880;2022-08-20T11:06:35;27.70;44.30
55711;DHT22;41612;51.994;5.880;2022-08-20T11:09:08;27.90;41.80
55711;DHT22;41612;51.994;5.880;2022-08-20T11:11:34;27.60;42.20
55711;DHT22;41612;51.994;5.880;2022-08-20T11:13:59;27.50;42.40
55711;DHT22;41612;51.994;5.880;2022-08-20T11:16:25;27.60;42.50
55711;DHT22;41612;51.994;5.880;2022-08-20T11:18:51;27.80;41.30
55711;DHT22;41612;51.994;5.880;2022-08-20T11:21:17;28.20;44.70
55711;DHT22;41612;51.994;5.880;2022-08-20T11:23:43;28.60;44.20
55711;DHT22;41612;51.994;5.880;2022-08-20T11:26:21;28.80;42.70
55711;DHT22;41612;51.994;5.880;2022-08-20T11:28:47;28.60;42.00
55711;DHT22;41612;51.994;5.880;2022-08-20T11:31:13;28.70;43.00
55711;DHT22;41612;51.994;5.880;2022-08-20T11:33:39;29.00;43.00
55711;DHT22;41612;51.994;5.880;2022-08-20T11:36:05;29.10;42.10
55711;DHT22;41612;51.994;5.880;2022-08-20T11:38:31;29.00;43.20
55711;DHT22;41612;51.994;5.880;2022-08-20T11:40:56;29.00;42.50
55711;DHT22;41612;51.994;5.880;2022-08-20T11:43:22;29.20;42.40
55711;DHT22;41612;51.994;5.880;2022-08-20T11:45:53;29.50;40.90
55711;DHT22;41612;51.994;5.880;2022-08-20T11:48:21;29.90;41.50
55711;DHT22;41612;51.994;5.880;2022-08-20T13:22:43;35.10;33.20
55711;DHT22;41612;51.994;5.880;2022-08-20T13:48:38;36.30;30.00
55711;DHT22;41612;51.994;5.880;2022-08-20T13:51:03;37.40;24.40
55711;DHT22;41612;51.994;5.880;2022-08-20T15:33:18;37.40;27.90
55711;DHT22;41612;51.994;5.880;2022-08-20T15:35:44;36.00;28.10
55711;DHT22;41612;51.994;5.880;2022-08-20T15:38:10;34.00;30.70
55711;DHT22;41612;51.994;5.880;2022-08-20T15:40:36;32.00;31.60
55711;DHT22;41612;51.994;5.880;2022-08-20T15:43:03;30.70;37.00
55711;DHT22;41612;51.994;5.880;2022-08-20T15:45:29;30.30;36.50
55711;DHT22;41612;51.994;5.880;2022-08-20T15:48:34;31.60;33.90
55711;DHT22;41612;51.994;5.880;2022-08-20T16:01:43;29.90;45.20
55711;DHT22;41612;51.994;5.880;2022-08-20T16:04:43;29.40;41.80
55711;DHT22;41612;51.994;5.880;2022-08-20T16:10:11;30.30;37.50
55711;DHT22;41612;51.994;5.880;2022-08-20T16:12:43;31.70;38.50
55711;DHT22;41612;51.994;5.880;2022-08-20T16:15:48;32.60;34.10
55711;DHT22;41612;51.994;5.880;2022-08-20T16:18:12;32.30;33.80
55711;DHT22;41612;51.994;5.880;2022-08-20T16:20:53;31.80;36.70
55711;DHT22;41612;51.994;5.880;2022-08-20T16:23:31;31.30;38.90
55711;DHT22;41612;51.994;5.880;2022-08-20T16:26:23;30.70;39.00
55711;DHT22;41612;51.994;5.880;2022-08-20T16:32:07;29.20;44.00
55711;DHT22;41612;51.994;5.880;2022-08-20T16:34:43;28.60;43.70
55711;DHT22;41612;51.994;5.880;2022-08-20T16:37:37;28.20;42.70
55711;DHT22;41612;51.994;5.880;2022-08-20T16:42:38;27.30;47.80
55711;DHT22;41612;51.994;5.880;2022-08-20T16:45:10;27.00;45.20
55711;DHT22;41612;51.994;5.880;2022-08-20T16:47:37;26.90;51.60
55711;DHT22;41612;51.994;5.880;2022-08-20T16:52:35;26.80;48.70
55711;DHT22;41612;51.994;5.880;2022-08-20T16:55:02;26.70;49.60
55711;DHT22;41612;51.994;5.880;2022-08-20T16:57:29;26.60;47.40
55711;DHT22;41612;51.994;5.880;2022-08-20T17:00:06;26.50;50.50
55711;DHT22;41612;51.994;5.880;2022-08-20T17:02:57;26.30;51.40
55711;DHT22;41612;51.994;5.880;2022-08-20T17:05:41;26.20;47.80
55711;DHT22;41612;51.994;5.880;2022-08-20T17:08:07;25.90;48.30
55711;DHT22;41612;51.994;5.880;2022-08-20T17:13:28;25.70;52.10
55711;DHT22;41612;51.994;5.880;2022-08-20T17:15:58;25.70;52.60
55711;DHT22;41612;51.994;5.880;2022-08-20T17:18:30;25.70;55.90
55711;DHT22;41612;51.994;5.880;2022-08-20T17:21:02;25.60;52.60
55711;DHT22;41612;51.994;5.880;2022-08-20T17:23:30;25.50;56.00
55711;DHT22;41612;51.994;5.880;2022-08-20T17:26:18;25.50;55.40
55711;DHT22;41612;51.994;5.880;2022-08-20T17:28:56;25.30;50.20
55711;DHT22;41612;51.994;5.880;2022-08-20T17:31:38;25.20;49.90
55711;DHT22;41612;51.994;5.880;2022-08-20T17:34:20;25.10;51.20
55711;DHT22;41612;51.994;5.880;2022-08-20T17:37:22;25.10;55.50
55711;DHT22;41612;51.994;5.880;2022-08-20T17:40:25;25.10;54.20
55711;DHT22;41612;51.994;5.880;2022-08-20T17:42:55;25.00;55.20
55711;DHT22;41612;51.994;5.880;2022-08-20T17:45:43;25.00;54.10
55711;DHT22;41612;51.994;5.880;2022-08-20T17:48:38;24.90;55.00
55711;DHT22;41612;51.994;5.880;2022-08-20T17:51:29;24.80;57.40
55711;DHT22;41612;51.994;5.880;2022-08-20T17:54:02;24.80;58.40
55711;DHT22;41612;51.994;5.880;2022-08-20T17:56:34;24.70;56.50
55711;DHT22;41612;51.994;5.880;2022-08-20T17:59:17;24.60;56.90
55711;DHT22;41612;51.994;5.880;2022-08-20T18:01:45;24.60;57.00
55711;DHT22;41612;51.994;5.880;2022-08-20T18:04:14;24.40;56.30
55711;DHT22;41612;51.994;5.880;2022-08-20T18:12:39;24.20;57.70
55711;DHT22;41612;51.994;5.880;2022-08-20T18:23:32;23.90;55.30
55711;DHT22;41612;51.994;5.880;2022-08-20T18:26:03;23.80;56.40
55711;DHT22;41612;51.994;5.880;2022-08-20T18:28:33;23.70;57.50
55711;DHT22;41612;51.994;5.880;2022-08-20T18:38:55;23.40;59.00
